sensor_id;sensor_type;location;lat;lon;timestamp;pressure;altitude;pressure_sealevel;temperature;humidity
78014;BME280;67222;50.182;8.734;2023-04-08T05:31:41;101054.41;;;2.68;88.17
78014;BME280;67222;50.182;8.734;2023-04-08T05:34:06;101049.44;;;2.65;88.50
78014;BME280;67222;50.182;8.734;2023-04-08T05:36:31;101051.91;;;2.76;89.05
78014;BME280;67222;50.182;8.734;2023-04-08T05:38:57;101059.13;;;2.74;88.85
78014;BME280;67222;50.182;8.734;2023-04-08T05:41:22;101046.38;;;2.69;88.58
78014;BME280;67222;50.182;8.734;2023-04-08T05:43:47;101049.72;;;2.71;88.71
78014;BME280;67222;50.182;8.734;2023-04-08T05:46:12;101055.38;;;2.77;88.44
78014;BME280;67222;50.182;8.734;2023-04-08T05:48:38;101049.16;;;2.78;88.63
78014;BME280;67222;50.182;8.734;2023-04-08T05:51:03;101054.69;;;2.94;89.68
78014;BME280;67222;50.182;8.734;2023-04-08T05:53:28;101054.44;;;3.07;89.30
78014;BME280;67222;50.182;8.734;2023-04-08T05:55:53;101058.88;;;3.06;89.13
78014;BME280;67222;50.182;8.734;2023-04-08T05:58:19;101056.63;;;3.21;89.59
78014;BME280;67222;50.182;8.734;2023-04-08T06:00:44;101063.94;;;3.46;89.27
78014;BME280;67222;50.182;8.734;2023-04-08T06:03:10;101065.47;;;3.49;89.06
78014;BME280;67222;50.182;8.734;2023-04-08T06:05:35;101067.94;;;3.60;89.30
78014;BME280;67222;50.182;8.734;2023-04-08T06:08:00;101067.13;;;3.59;88.83
78014;BME280;67222;50.182;8.734;2023-04-08T06:10:26;101073.75;;;3.63;88.43
78014;BME280;67222;50.182;8.734;2023-04-08T06:12:51;101078.34;;;3.61;87.73
78014;BME280;67222;50.182;8.734;2023-04-08T06:15:17;101079.03;;;3.63;87.42
78014;BME280;67222;50.182;8.734;2023-04-08T06:17:42;101081.66;;;3.63;87.23
78014;BME280;67222;50.182;8.734;2023-04-08T06:20:08;101079.03;;;3.63;87.38
78014;BME280;67222;50.182;8.734;2023-04-08T06:22:34;101084.84;;;3.67;88.40
78014;BME280;67222;50.182;8.734;2023-04-08T06:25:00;101084.41;;;3.72;87.98
78014;BME280;67222;50.182;8.734;2023-04-08T06:27:26;101082.06;;;3.78;88.19
78014;BME280;67222;50.182;8.734;2023-04-08T06:29:51;101096.31;;;3.95;87.86
78014;BME280;67222;50.182;8.734;2023-04-08T06:32:17;101097.81;;;3.98;86.89
78014;BME280;67222;50.182;8.734;2023-04-08T06:34:44;101101.44;;;3.97;86.80
78014;BME280;67222;50.182;8.734;2023-04-08T06:37:10;101105.81;;;4.06;87.40
78014;BME280;67222;50.182;8.734;2023-04-08T06:39:35;101103.59;;;4.11;86.85
78014;BME280;67222;50.182;8.734;2023-04-08T06:42:00;101114.09;;;4.20;87.22
78014;BME280;67222;50.182;8.734;2023-04-08T06:44:26;101107.25;;;4.28;86.45
78014;BME280;67222;50.182;8.734;2023-04-08T06:46:51;101106.94;;;4.40;86.61
78014;BME280;67222;50.182;8.734;2023-04-08T06:49:16;101108.75;;;4.40;86.80
78014;BME280;67222;50.182;8.734;2023-04-08T06:51:42;101116.78;;;4.48;87.28
78014;BME280;67222;50.182;8.734;2023-04-08T06:54:07;101122.13;;;4.56;86.87
78014;BME280;67222;50.182;8.734;2023-04-08T06:56:34;101105.84;;;4.61;86.23
78014;BME280;67222;50.182;8.734;2023-04-08T06:58:59;101105.72;;;4.80;85.93
78014;BME280;67222;50.182;8.734;2023-04-08T07:01:25;101114.28;;;4.92;86.20
78014;BME280;67222;50.182;8.734;2023-04-08T07:03:50;101116.81;;;5.01;85.81
78014;BME280;67222;50.182;8.734;2023-04-08T07:06:16;101115.00;;;5.02;85.14
78014;BME280;67222;50.182;8.734;2023-04-08T07:08:41;101118.63;;;5.01;85.04
78014;BME280;67222;50.182;8.734;2023-04-08T07:11:06;101124.63;;;5.21;84.77
78014;BME280;67222;50.182;8.734;2023-04-08T07:13:32;101122.22;;;5.27;84.24
78014;BME280;67222;50.182;8.734;2023-04-08T07:15:57;101117.13;;;5.34;85.08
78014;BME280;67222;50.182;8.734;2023-04-08T07:18:23;101112.50;;;5.36;84.62
78014;BME280;67222;50.182;8.734;2023-04-08T07:20:52;101125.19;;;5.50;84.28
78014;BME280;67222;50.182;8.734;2023-04-08T07:23:21;101125.56;;;5.55;84.74
78014;BME280;67222;50.182;8.734;2023-04-08T07:25:47;101124.22;;;5.51;83.74
78014;BME280;67222;50.182;8.734;2023-04-08T07:28:12;101123.81;;;5.64;84.07
78014;BME280;67222;50.182;8.734;2023-04-08T07:30:38;101128.84;;;5.75;83.65
78014;BME280;67222;50.182;8.734;2023-04-08T07:33:03;101126.50;;;5.72;83.00
78014;BME280;67222;50.182;8.734;2023-04-08T07:35:29;101133.69;;;5.80;84.12
78014;BME280;67222;50.182;8.734;2023-04-08T07:37:55;101134.38;;;5.82;83.98
78014;BME280;67222;50.182;8.734;2023-04-08T07:40:21;101133.56;;;5.89;83.47
78014;BME280;67222;50.182;8.734;2023-04-08T07:42:47;101143.88;;;5.92;83.46
78014;BME280;67222;50.182;8.734;2023-04-08T07:45:13;101146.38;;;5.94;82.80
78014;BME280;67222;50.182;8.734;2023-04-08T07:47:38;101145.84;;;5.90;83.75
78014;BME280;67222;50.182;8.734;2023-04-08T07:50:04;101141.00;;;5.86;84.14
78014;BME280;67222;50.182;8.734;2023-04-08T07:52:30;101145.84;;;5.90;84.02
78014;BME280;67222;50.182;8.734;2023-04-08T07:54:55;101144.53;;;5.94;83.87
78014;BME280;67222;50.182;8.734;2023-04-08T07:57:20;101141.97;;;6.02;83.52
78014;BME280;67222;50.182;8.734;2023-04-08T07:59:46;101153.25;;;6.13;83.37
78014;BME280;67222;50.182;8.734;2023-04-08T08:02:11;101147.75;;;6.32;82.89
78014;BME280;67222;50.182;8.734;2023-04-08T08:04:36;101150.25;;;6.33;81.52
78014;BME280;67222;50.182;8.734;2023-04-08T08:07:02;101158.72;;;6.45;83.09
78014;BME280;67222;50.182;8.734;2023-04-08T08:09:27;101162.88;;;6.48;81.36
78014;BME280;67222;50.182;8.734;2023-04-08T08:11:52;101170.66;;;6.49;82.72
78014;BME280;67222;50.182;8.734;2023-04-08T08:14:18;101166.91;;;6.52;82.60
78014;BME280;67222;50.182;8.734;2023-04-08T08:16:43;101156.31;;;6.60;82.02
78014;BME280;67222;50.182;8.734;2023-04-08T08:19:08;101161.28;;;6.55;79.76
78014;BME280;67222;50.182;8.734;2023-04-08T08:21:37;101166.75;;;6.61;80.08
78014;BME280;67222;50.182;8.734;2023-04-08T08:24:03;101169.56;;;6.60;79.69
78014;BME280;67222;50.182;8.734;2023-04-08T08:26:29;101173.22;;;6.59;77.93
78014;BME280;67222;50.182;8.734;2023-04-08T08:28:54;101182.31;;;6.56;79.64
78014;BME280;67222;50.182;8.734;2023-04-08T08:31:19;101181.47;;;6.56;79.05
78014;BME280;67222;50.182;8.734;2023-04-08T08:33:45;101184.28;;;6.54;79.12
78014;BME280;67222;50.182;8.734;2023-04-08T08:36:11;101185.63;;;6.58;80.98
78014;BME280;67222;50.182;8.734;2023-04-08T08:38:37;101194.22;;;6.52;79.97
78014;BME280;67222;50.182;8.734;2023-04-08T08:41:03;101191.34;;;6.46;79.81
78014;BME280;67222;50.182;8.734;2023-04-08T08:43:29;101198.00;;;6.50;80.46
78014;BME280;67222;50.182;8.734;2023-04-08T08:45:57;101200.38;;;6.61;81.20
78014;BME280;67222;50.182;8.734;2023-04-08T08:48:23;101206.09;;;6.82;81.52
78014;BME280;67222;50.182;8.734;2023-04-08T08:50:49;101203.25;;;6.76;80.03
78014;BME280;67222;50.182;8.734;2023-04-08T08:53:14;101198.13;;;6.82;78.84
78014;BME280;67222;50.182;8.734;2023-04-08T08:55:40;101195.00;;;6.87;77.01
78014;BME280;67222;50.182;8.734;2023-04-08T08:58:05;101195.38;;;6.92;79.43
78014;BME280;67222;50.182;8.734;2023-04-08T09:00:36;101205.34;;;7.06;78.64
78014;BME280;67222;50.182;8.734;2023-04-08T09:08:31;101208.41;;;7.36;77.54
78014;BME280;67222;50.182;8.734;2023-04-08T09:11:16;101209.75;;;7.48;76.92
78014;BME280;67222;50.182;8.734;2023-04-08T09:13:42;101210.75;;;7.63;76.36
78014;BME280;67222;50.182;8.734;2023-04-08T09:16:09;101211.91;;;7.85;76.52
78014;BME280;67222;50.182;8.734;2023-04-08T09:18:36;101200.63;;;7.91;73.83
78014;BME280;67222;50.182;8.734;2023-04-08T09:21:02;101211.56;;;8.04;74.58
78014;BME280;67222;50.182;8.734;2023-04-08T09:23:46;101212.88;;;8.08;71.86
78014;BME280;67222;50.182;8.734;2023-04-08T09:28:42;101213.75;;;8.01;70.92
78014;BME280;67222;50.182;8.734;2023-04-08T09:31:21;101208.38;;;8.25;72.04
78014;BME280;67222;50.182;8.734;2023-04-08T09:33:48;101215.19;;;8.36;72.29
78014;BME280;67222;50.182;8.734;2023-04-08T09:36:15;101215.34;;;8.34;68.12
78014;BME280;67222;50.182;8.734;2023-04-08T09:38:41;101209.03;;;8.35;70.12
78014;BME280;67222;50.182;8.734;2023-04-08T09:41:07;101220.31;;;8.45;70.88
78014;BME280;67222;50.182;8.734;2023-04-08T09:43:43;101214.19;;;8.29;69.13
78014;BME280;67222;50.182;8.734;2023-04-08T09:46:14;101213.69;;;8.41;70.58
78014;BME280;67222;50.182;8.734;2023-04-08T09:48:51;101220.84;;;8.41;71.11
78014;BME280;67222;50.182;8.734;2023-04-08T09:51:20;101220.66;;;8.42;71.68
78014;BME280;67222;50.182;8.734;2023-04-08T09:53:48;101226.47;;;8.46;70.16
78014;BME280;67222;50.182;8.734;2023-04-08T09:56:18;101226.13;;;8.57;70.44
78014;BME280;67222;50.182;8.734;2023-04-08T09:58:51;101216.63;;;8.63;70.03
78014;BME280;67222;50.182;8.734;2023-04-08T10:01:25;101220.88;;;8.72;71.38
78014;BME280;67222;50.182;8.734;2023-04-08T10:03:54;101221.34;;;8.84;67.66
78014;BME280;67222;50.182;8.734;2023-04-08T10:06:21;101223.47;;;8.96;71.18
78014;BME280;67222;50.182;8.734;2023-04-08T10:08:52;101220.66;;;9.21;69.09
78014;BME280;67222;50.182;8.734;2023-04-08T10:11:18;101214.31;;;9.30;66.24
78014;BME280;67222;50.182;8.734;2023-04-08T10:13:44;101219.03;;;9.43;66.76
78014;BME280;67222;50.182;8.734;2023-04-08T10:16:20;101217.69;;;9.69;67.95
78014;BME280;67222;50.182;8.734;2023-04-08T10:18:46;101217.91;;;9.83;66.33
78014;BME280;67222;50.182;8.734;2023-04-08T10:21:38;101221.72;;;10.03;65.82
78014;BME280;67222;50.182;8.734;2023-04-08T10:24:10;101212.66;;;10.12;65.00
78014;BME280;67222;50.182;8.734;2023-04-08T10:26:37;101210.03;;;10.27;65.63
78014;BME280;67222;50.182;8.734;2023-04-08T10:31:47;101209.69;;;10.45;64.04
78014;BME280;67222;50.182;8.734;2023-04-08T10:34:18;101205.81;;;10.32;66.31
78014;BME280;67222;50.182;8.734;2023-04-08T10:36:44;101206.47;;;10.49;65.35
78014;BME280;67222;50.182;8.734;2023-04-08T10:39:09;101207.56;;;10.55;65.09
78014;BME280;67222;50.182;8.734;2023-04-08T10:41:47;101205.78;;;10.77;65.09
78014;BME280;67222;50.182;8.734;2023-04-08T10:44:20;101194.28;;;10.76;64.41
78014;BME280;67222;50.182;8.734;2023-04-08T10:46:47;101196.03;;;10.84;64.97
78014;BME280;67222;50.182;8.734;2023-04-08T10:49:14;101208.47;;;11.13;62.84
78014;BME280;67222;50.182;8.734;2023-04-08T10:51:40;101204.81;;;11.14;63.77
78014;BME280;67222;50.182;8.734;2023-04-08T10:54:15;101206.03;;;11.33;61.99
78014;BME280;67222;50.182;8.734;2023-04-08T10:59:27;101204.47;;;11.38;60.67
78014;BME280;67222;50.182;8.734;2023-04-08T11:01:53;101211.75;;;11.30;60.66
78014;BME280;67222;50.182;8.734;2023-04-08T11:04:19;101212.78;;;11.29;62.45
78014;BME280;67222;50.182;8.734;2023-04-08T11:06:45;101216.50;;;11.13;65.29
78014;BME280;67222;50.182;8.734;2023-04-08T11:09:12;101205.69;;;10.85;64.58
78014;BME280;67222;50.182;8.734;2023-04-08T11:11:40;101203.69;;;10.87;64.46
78014;BME280;67222;50.182;8.734;2023-04-08T11:14:06;101199.56;;;11.42;66.08
78014;BME280;67222;50.182;8.734;2023-04-08T11:16:33;101208.59;;;11.62;64.82
78014;BME280;67222;50.182;8.734;2023-04-08T11:19:01;101198.88;;;11.76;62.28
78014;BME280;67222;50.182;8.734;2023-04-08T11:21:27;101198.50;;;11.58;61.76
78014;BME280;67222;50.182;8.734;2023-04-08T11:23:53;101195.81;;;11.36;61.97
78014;BME280;67222;50.182;8.734;2023-04-08T11:26:20;101191.03;;;11.32;62.78
78014;BME280;67222;50.182;8.734;2023-04-08T11:28:46;101189.22;;;11.53;62.17
78014;BME280;67222;50.182;8.734;2023-04-08T11:31:13;101191.31;;;11.37;61.71
78014;BME280;67222;50.182;8.734;2023-04-08T11:33:46;101207.03;;;11.32;63.60
78014;BME280;67222;50.182;8.734;2023-04-08T11:36:12;101201.25;;;10.92;63.63
78014;BME280;67222;50.182;8.734;2023-04-08T11:38:38;101209.38;;;10.84;62.96
78014;BME280;67222;50.182;8.734;2023-04-08T11:41:05;101201.84;;;10.73;63.56
78014;BME280;67222;50.182;8.734;2023-04-08T11:43:30;101200.00;;;10.58;66.78
78014;BME280;67222;50.182;8.734;2023-04-08T11:45:56;101203.78;;;10.64;68.04
78014;BME280;67222;50.182;8.734;2023-04-08T11:48:21;101207.03;;;10.96;66.41
78014;BME280;67222;50.182;8.734;2023-04-08T11:51:01;101195.03;;;11.64;65.13
78014;BME280;67222;50.182;8.734;2023-04-08T11:53:27;101203.66;;;12.08;62.36
78014;BME280;67222;50.182;8.734;2023-04-08T11:55:52;101202.91;;;12.15;62.90
78014;BME280;67222;50.182;8.734;2023-04-08T11:58:18;101202.69;;;11.88;61.15
78014;BME280;67222;50.182;8.734;2023-04-08T12:00:43;101202.19;;;12.27;61.94
78014;BME280;67222;50.182;8.734;2023-04-08T12:03:10;101200.06;;;12.23;64.69
78014;BME280;67222;50.182;8.734;2023-04-08T12:05:35;101209.25;;;12.41;64.75
78014;BME280;67222;50.182;8.734;2023-04-08T12:08:00;101204.59;;;12.22;62.68
78014;BME280;67222;50.182;8.734;2023-04-08T12:10:26;101215.09;;;11.96;64.52
78014;BME280;67222;50.182;8.734;2023-04-08T12:12:51;101219.19;;;11.92;64.17
78014;BME280;67222;50.182;8.734;2023-04-08T12:15:17;101208.97;;;12.02;63.42
78014;BME280;67222;50.182;8.734;2023-04-08T12:17:42;101211.16;;;12.48;61.41
78014;BME280;67222;50.182;8.734;2023-04-08T12:20:09;101210.88;;;12.42;61.77
78014;BME280;67222;50.182;8.734;2023-04-08T12:22:34;101210.06;;;12.77;63.23
78014;BME280;67222;50.182;8.734;2023-04-08T12:25:00;101208.66;;;13.55;60.04
78014;BME280;67222;50.182;8.734;2023-04-08T12:27:27;101197.72;;;14.49;56.02
78014;BME280;67222;50.182;8.734;2023-04-08T12:29:52;101204.75;;;14.50;53.57
78014;BME280;67222;50.182;8.734;2023-04-08T12:32:18;101197.91;;;14.61;55.46
78014;BME280;67222;50.182;8.734;2023-04-08T12:34:43;101200.63;;;14.54;54.66
78014;BME280;67222;50.182;8.734;2023-04-08T12:37:08;101201.31;;;13.97;55.83
78014;BME280;67222;50.182;8.734;2023-04-08T12:39:34;101196.34;;;13.67;55.67
78014;BME280;67222;50.182;8.734;2023-04-08T12:42:00;101190.91;;;15.04;52.22
78014;BME280;67222;50.182;8.734;2023-04-08T12:44:25;101188.72;;;15.64;52.41
78014;BME280;67222;50.182;8.734;2023-04-08T12:46:50;101181.97;;;16.67;51.11
78014;BME280;67222;50.182;8.734;2023-04-08T12:49:16;101181.75;;;17.16;46.74
78014;BME280;67222;50.182;8.734;2023-04-08T12:51:41;101175.44;;;16.92;48.35
78014;BME280;67222;50.182;8.734;2023-04-08T12:54:06;101192.69;;;15.87;49.94
78014;BME280;67222;50.182;8.734;2023-04-08T12:56:32;101184.06;;;14.70;54.81
78014;BME280;67222;50.182;8.734;2023-04-08T12:58:59;101182.03;;;14.39;54.98
78014;BME280;67222;50.182;8.734;2023-04-08T13:01:25;101196.53;;;13.72;55.87
78014;BME280;67222;50.182;8.734;2023-04-08T13:03:51;101191.56;;;13.43;58.52
78014;BME280;67222;50.182;8.734;2023-04-08T13:06:16;101201.78;;;13.19;57.62
78014;BME280;67222;50.182;8.734;2023-04-08T13:08:41;101201.00;;;12.78;59.12
78014;BME280;67222;50.182;8.734;2023-04-08T13:11:07;101192.53;;;12.74;59.08
78014;BME280;67222;50.182;8.734;2023-04-08T13:13:33;101191.63;;;12.54;59.52
78014;BME280;67222;50.182;8.734;2023-04-08T13:15:58;101194.06;;;12.49;59.61
78014;BME280;67222;50.182;8.734;2023-04-08T13:18:24;101195.41;;;12.31;60.61
78014;BME280;67222;50.182;8.734;2023-04-08T13:20:50;101193.63;;;12.10;61.95
78014;BME280;67222;50.182;8.734;2023-04-08T13:23:15;101189.44;;;12.01;62.24
78014;BME280;67222;50.182;8.734;2023-04-08T13:25:42;101196.00;;;11.99;62.98
78014;BME280;67222;50.182;8.734;2023-04-08T13:28:07;101195.25;;;11.83;61.95
78014;BME280;67222;50.182;8.734;2023-04-08T13:30:33;101190.97;;;11.89;63.46
78014;BME280;67222;50.182;8.734;2023-04-08T13:32:58;101194.94;;;11.93;63.80
78014;BME280;67222;50.182;8.734;2023-04-08T13:35:23;101195.16;;;11.98;63.04
78014;BME280;67222;50.182;8.734;2023-04-08T13:37:49;101190.09;;;11.82;64.06
78014;BME280;67222;50.182;8.734;2023-04-08T13:40:14;101192.38;;;11.85;63.18
78014;BME280;67222;50.182;8.734;2023-04-08T13:42:39;101196.19;;;11.76;63.16
78014;BME280;67222;50.182;8.734;2023-04-08T13:45:06;101193.44;;;11.69;63.62
78014;BME280;67222;50.182;8.734;2023-04-08T13:47:31;101197.84;;;11.77;62.46
78014;BME280;67222;50.182;8.734;2023-04-08T13:49:57;101187.53;;;11.95;62.49
78014;BME280;67222;50.182;8.734;2023-04-08T13:52:22;101180.91;;;12.19;62.66
78014;BME280;67222;50.182;8.734;2023-04-08T13:54:48;101178.53;;;12.31;63.41
78014;BME280;67222;50.182;8.734;2023-04-08T13:57:13;101180.91;;;12.19;61.42
78014;BME280;67222;50.182;8.734;2023-04-08T13:59:38;101186.78;;;12.08;63.67
78014;BME280;67222;50.182;8.734;2023-04-08T14:02:03;101190.50;;;12.07;62.45
78014;BME280;67222;50.182;8.734;2023-04-08T14:04:29;101185.72;;;12.02;61.93
78014;BME280;67222;50.182;8.734;2023-04-08T14:06:54;101189.88;;;12.33;63.55
78014;BME280;67222;50.182;8.734;2023-04-08T14:09:22;101186.69;;;12.57;63.55
78014;BME280;67222;50.182;8.734;2023-04-08T14:11:47;101190.31;;;12.43;61.47
78014;BME280;67222;50.182;8.734;2023-04-08T14:14:12;101195.16;;;12.26;64.13
78014;BME280;67222;50.182;8.734;2023-04-08T14:16:38;101195.94;;;12.20;62.94
78014;BME280;67222;50.182;8.734;2023-04-08T14:19:03;101195.50;;;12.17;63.99
78014;BME280;67222;50.182;8.734;2023-04-08T14:21:29;101197.03;;;11.98;63.58
78014;BME280;67222;50.182;8.734;2023-04-08T14:23:55;101192.97;;;11.80;66.79
78014;BME280;67222;50.182;8.734;2023-04-08T14:26:21;101192.63;;;11.69;65.90
78014;BME280;67222;50.182;8.734;2023-04-08T14:28:46;101195.38;;;11.54;66.00
78014;BME280;67222;50.182;8.734;2023-04-08T14:31:14;101190.53;;;11.64;67.21
78014;BME280;67222;50.182;8.734;2023-04-08T14:33:40;101181.94;;;11.69;64.63
78014;BME280;67222;50.182;8.734;2023-04-08T14:36:06;101182.94;;;11.68;66.21
78014;BME280;67222;50.182;8.734;2023-04-08T14:38:32;101183.47;;;11.78;67.62
78014;BME280;67222;50.182;8.734;2023-04-08T14:40:57;101185.69;;;11.74;68.35
78014;BME280;67222;50.182;8.734;2023-04-08T14:43:22;101183.94;;;11.81;67.00
78014;BME280;67222;50.182;8.734;2023-04-08T14:45:51;101184.09;;;12.01;66.36
78014;BME280;67222;50.182;8.734;2023-04-08T14:48:17;101182.59;;;12.27;64.48
78014;BME280;67222;50.182;8.734;2023-04-08T14:50:42;101175.66;;;13.28;61.91
78014;BME280;67222;50.182;8.734;2023-04-08T14:53:08;101172.00;;;14.02;58.96
78014;BME280;67222;50.182;8.734;2023-04-08T14:55:33;101179.81;;;14.23;58.61
78014;BME280;67222;50.182;8.734;2023-04-08T14:57:58;101176.47;;;14.41;57.33
78014;BME280;67222;50.182;8.734;2023-04-08T15:00:24;101172.81;;;13.89;58.23
78014;BME280;67222;50.182;8.734;2023-04-08T15:02:49;101179.84;;;13.63;58.80
78014;BME280;67222;50.182;8.734;2023-04-08T15:05:14;101186.41;;;13.41;59.44
78014;BME280;67222;50.182;8.734;2023-04-08T15:07:40;101178.38;;;13.48;59.01
78014;BME280;67222;50.182;8.734;2023-04-08T15:10:07;101173.00;;;13.21;62.14
78014;BME280;67222;50.182;8.734;2023-04-08T15:12:32;101170.09;;;13.29;61.67
78014;BME280;67222;50.182;8.734;2023-04-08T15:14:57;101178.59;;;13.46;60.63
78014;BME280;67222;50.182;8.734;2023-04-08T15:17:23;101175.50;;;13.56;61.82
78014;BME280;67222;50.182;8.734;2023-04-08T15:19:50;101174.88;;;13.54;62.63
78014;BME280;67222;50.182;8.734;2023-04-08T15:22:15;101172.78;;;13.36;61.68
78014;BME280;67222;50.182;8.734;2023-04-08T15:24:41;101178.88;;;13.03;62.34
78014;BME280;67222;50.182;8.734;2023-04-08T15:27:06;101176.97;;;12.97;63.28
78014;BME280;67222;50.182;8.734;2023-04-08T15:29:32;101187.28;;;13.00;64.06
78014;BME280;67222;50.182;8.734;2023-04-08T15:31:57;101184.38;;;12.89;65.19
78014;BME280;67222;50.182;8.734;2023-04-08T15:34:22;101180.41;;;12.78;64.89
78014;BME280;67222;50.182;8.734;2023-04-08T15:36:47;101183.81;;;12.52;64.35
78014;BME280;67222;50.182;8.734;2023-04-08T15:39:13;101183.69;;;12.32;65.31
78014;BME280;67222;50.182;8.734;2023-04-08T15:41:39;101181.59;;;12.28;66.05
78014;BME280;67222;50.182;8.734;2023-04-08T15:44:04;101188.81;;;11.99;66.10
78014;BME280;67222;50.182;8.734;2023-04-08T15:46:29;101178.75;;;12.01;66.74
78014;BME280;67222;50.182;8.734;2023-04-08T15:48:55;101187.34;;;11.75;67.18
78014;BME280;67222;50.182;8.734;2023-04-08T15:51:20;101196.16;;;11.91;68.84
78014;BME280;67222;50.182;8.734;2023-04-08T15:53:46;101197.53;;;11.87;66.65
78014;BME280;67222;50.182;8.734;2023-04-08T15:56:14;101196.28;;;11.82;65.79
78014;BME280;67222;50.182;8.734;2023-04-08T15:58:41;101200.16;;;11.80;66.90
78014;BME280;67222;50.182;8.734;2023-04-08T16:01:06;101203.38;;;11.75;66.22
78014;BME280;67222;50.182;8.734;2023-04-08T16:03:32;101206.56;;;11.64;66.41
78014;BME280;67222;50.182;8.734;2023-04-08T16:05:57;101204.47;;;11.60;68.44
78014;BME280;67222;50.182;8.734;2023-04-08T16:08:22;101198.41;;;11.51;67.05
78014;BME280;67222;50.182;8.734;2023-04-08T16:10:48;101201.66;;;11.46;69.49
78014;BME280;67222;50.182;8.734;2023-04-08T16:13:13;101202.94;;;11.50;69.02
78014;BME280;67222;50.182;8.734;2023-04-08T16:15:39;101206.56;;;11.43;67.30
78014;BME280;67222;50.182;8.734;2023-04-08T16:18:04;101209.53;;;11.33;67.45
78014;BME280;67222;50.182;8.734;2023-04-08T16:20:30;101205.59;;;11.29;71.88
78014;BME280;67222;50.182;8.734;2023-04-08T16:22:56;101207.44;;;11.29;73.21
78014;BME280;67222;50.182;8.734;2023-04-08T16:25:21;101210.63;;;11.17;68.88
78014;BME280;67222;50.182;8.734;2023-04-08T16:27:46;101219.69;;;11.23;68.25
78014;BME280;67222;50.182;8.734;2023-04-08T16:30:12;101212.78;;;11.29;72.00
78014;BME280;67222;50.182;8.734;2023-04-08T16:32:37;101212.72;;;11.22;68.19
78014;BME280;67222;50.182;8.734;2023-04-08T16:35:03;101222.13;;;11.18;69.09
78014;BME280;67222;50.182;8.734;2023-04-08T16:37:29;101214.41;;;11.08;67.37
78014;BME280;67222;50.182;8.734;2023-04-08T16:39:55;101220.19;;;11.12;70.77
78014;BME280;67222;50.182;8.734;2023-04-08T16:42:20;101221.13;;;11.04;70.97
78014;BME280;67222;50.182;8.734;2023-04-08T16:44:46;101224.00;;;11.03;68.92
78014;BME280;67222;50.182;8.734;2023-04-08T16:47:11;101228.50;;;11.02;71.89
78014;BME280;67222;50.182;8.734;2023-04-08T16:49:36;101225.47;;;10.90;70.88
78014;BME280;67222;50.182;8.734;2023-04-08T16:52:02;101234.88;;;10.86;71.18
78014;BME280;67222;50.182;8.734;2023-04-08T16:54:27;101235.88;;;10.85;68.22
78014;BME280;67222;50.182;8.734;2023-04-08T16:56:53;101238.91;;;10.97;70.95
78014;BME280;67222;50.182;8.734;2023-04-08T16:59:18;101229.69;;;11.00;64.75
78014;BME280;67222;50.182;8.734;2023-04-08T17:01:43;101238.63;;;10.92;67.73
78014;BME280;67222;50.182;8.734;2023-04-08T17:04:08;101243.13;;;10.91;67.37
78014;BME280;67222;50.182;8.734;2023-04-08T17:06:34;101248.97;;;10.80;61.37
78014;BME280;67222;50.182;8.734;2023-04-08T17:09:01;101252.72;;;10.71;64.71
78014;BME280;67222;50.182;8.734;2023-04-08T17:11:28;101246.09;;;10.67;62.35
78014;BME280;67222;50.182;8.734;2023-04-08T17:13:53;101254.16;;;10.59;65.57
78014;BME280;67222;50.182;8.734;2023-04-08T17:16:19;101253.16;;;10.45;61.38
78014;BME280;67222;50.182;8.734;2023-04-08T17:18:44;101259.41;;;10.52;66.32
78014;BME280;67222;50.182;8.734;2023-04-08T17:21:10;101259.88;;;10.56;65.31
78014;BME280;67222;50.182;8.734;2023-04-08T17:23:38;101262.19;;;10.44;65.13
78014;BME280;67222;50.182;8.734;2023-04-08T17:26:07;101272.66;;;10.46;63.71
78014;BME280;67222;50.182;8.734;2023-04-08T17:28:33;101273.09;;;10.35;64.77
78014;BME280;67222;50.182;8.734;2023-04-08T17:30:59;101271.91;;;10.37;67.65
78014;BME280;67222;50.182;8.734;2023-04-08T17:33:24;101270.53;;;10.26;62.46
78014;BME280;67222;50.182;8.734;2023-04-08T17:35:53;101269.78;;;10.32;65.90
78014;BME280;67222;50.182;8.734;2023-04-08T17:38:18;101275.38;;;10.23;67.46
78014;BME280;67222;50.182;8.734;2023-04-08T17:40:43;101278.06;;;10.15;66.68
78014;BME280;67222;50.182;8.734;2023-04-08T17:43:10;101275.97;;;10.10;67.54
78014;BME280;67222;50.182;8.734;2023-04-08T17:45:36;101282.72;;;9.98;66.08
78014;BME280;67222;50.182;8.734;2023-04-08T17:48:02;101289.69;;;9.99;68.12
78014;BME280;67222;50.182;8.734;2023-04-08T17:50:29;101283.47;;;9.84;66.41
78014;BME280;67222;50.182;8.734;2023-04-08T17:52:54;101291.13;;;9.87;68.79
78014;BME280;67222;50.182;8.734;2023-04-08T17:55:20;101297.63;;;9.84;69.45
78014;BME280;67222;50.182;8.734;2023-04-08T17:57:45;101292.28;;;9.84;69.82
78014;BME280;67222;50.182;8.734;2023-04-08T18:00:11;101297.50;;;9.78;69.20
78014;BME280;67222;50.182;8.734;2023-04-08T18:02:36;101301.53;;;9.74;65.81
78014;BME280;67222;50.182;8.734;2023-04-08T18:05:02;101306.56;;;9.68;67.36
78014;BME280;67222;50.182;8.734;2023-04-08T18:07:28;101305.25;;;9.64;67.86
78014;BME280;67222;50.182;8.734;2023-04-08T18:09:53;101301.66;;;9.57;68.52
78014;BME280;67222;50.182;8.734;2023-04-08T18:12:18;101313.13;;;9.58;68.97
78014;BME280;67222;50.182;8.734;2023-04-08T18:14:44;101317.97;;;9.54;69.99
78014;BME280;67222;50.182;8.734;2023-04-08T18:17:10;101315.00;;;9.49;69.84
78014;BME280;67222;50.182;8.734;2023-04-08T18:19:35;101318.66;;;9.48;68.55
78014;BME280;67222;50.182;8.734;2023-04-08T18:22:00;101319.66;;;9.47;70.51
78014;BME280;67222;50.182;8.734;2023-04-08T18:24:26;101325.38;;;9.36;70.57
78014;BME280;67222;50.182;8.734;2023-04-08T18:26:51;101333.09;;;9.23;69.66
78014;BME280;67222;50.182;8.734;2023-04-08T18:29:16;101339.25;;;9.23;72.09
78014;BME280;67222;50.182;8.734;2023-04-08T18:31:42;101334.13;;;9.14;68.45
78014;BME280;67222;50.182;8.734;2023-04-08T18:34:07;101337.13;;;9.10;69.83